sensor_id;sensor_type;location;lat;lon;timestamp;pressure;altitude;pressure_sealevel;temperature;humidity
74431;BME280;62863;52.062;23.764;2023-10-08T00:00:40;1018.3;;;11.5;52.1
74431;BME280;62863;52.062;23.764;2023-10-08T00:06:10;1018.3;;;11.4;52.1
74431;BME280;62863;52.062;23.764;2023-10-08T00:10:34;1018.3;;;11.3;52.2
74431;BME280;62863;52.062;23.764;2023-10-08T00:15:56;1018.3;;;11.2;52.3
74431;BME280;62863;52.062;23.764;2023-10-08T00:20:34;1018.2;;;11.2;52.5
74431;BME280;62863;52.062;23.764;2023-10-08T00:25:38;1018.1;;;11.2;52.9
74431;BME280;62863;52.062;23.764;2023-10-08T00:31:10;1018;;;11.2;52.5
74431;BME280;62863;52.062;23.764;2023-10-08T00:35:44;1018.2;;;11.1;52.7
74431;BME280;62863;52.062;23.764;2023-10-08T00:40:38;1018.3;;;11.1;52.6
74431;BME280;62863;52.062;23.764;2023-10-08T00:45:38;1018.2;;;11.2;53
74431;BME280;62863;52.062;23.764;2023-10-08T00:50:58;1018.3;;;11.2;52.9
74431;BME280;62863;52.062;23.764;2023-10-08T00:56:08;1018.2;;;11.2;53.2
74431;BME280;62863;52.062;23.764;2023-10-08T01:00:32;1018.3;;;11.2;54
74431;BME280;62863;52.062;23.764;2023-10-08T01:05:56;1018.3;;;11.2;54.2
74431;BME280;62863;52.062;23.764;2023-10-08T01:10:52;1018.4;;;11.1;54.4
74431;BME280;62863;52.062;23.764;2023-10-08T01:15:44;1018.4;;;11.1;54.2
74431;BME280;62863;52.062;23.764;2023-10-08T01:21:10;1018.1;;;11;54.2
74431;BME280;62863;52.062;23.764;2023-10-08T01:25:32;1018.1;;;11;55.2
74431;BME280;62863;52.062;23.764;2023-10-08T01:30:32;1018.1;;;11;55.2
74431;BME280;62863;52.062;23.764;2023-10-08T01:35:32;1018;;;11;55.3
74431;BME280;62863;52.062;23.764;2023-10-08T01:40:58;1017.8;;;11;56.2
74431;BME280;62863;52.062;23.764;2023-10-08T01:46:10;1017.9;;;11;56.6
74431;BME280;62863;52.062;23.764;2023-10-08T01:50:48;1018.1;;;10.9;56.8
74431;BME280;62863;52.062;23.764;2023-10-08T01:55:56;1018.1;;;10.9;56.8
74431;BME280;62863;52.062;23.764;2023-10-08T02:01:08;1018.2;;;10.9;56.7
74431;BME280;62863;52.062;23.764;2023-10-08T02:05:45;1018.3;;;10.9;56.7
74431;BME280;62863;52.062;23.764;2023-10-08T02:11:10;1018.2;;;10.8;56.9
74431;BME280;62863;52.062;23.764;2023-10-08T02:15:40;1018.2;;;10.7;57.4
74431;BME280;62863;52.062;23.764;2023-10-08T02:20:38;1018.2;;;10.7;56.8
74431;BME280;62863;52.062;23.764;2023-10-08T02:25:44;1018.2;;;10.7;57.6
74431;BME280;62863;52.062;23.764;2023-10-08T02:30:58;1018.2;;;10.7;57.1
74431;BME280;62863;52.062;23.764;2023-10-08T02:36:10;1018.1;;;10.7;57.6
74431;BME280;62863;52.062;23.764;2023-10-08T02:40:48;1018;;;10.7;57.6
74431;BME280;62863;52.062;23.764;2023-10-08T02:45:50;1018.1;;;10.7;57.3
74431;BME280;62863;52.062;23.764;2023-10-08T02:50:48;1018.1;;;10.7;58.1
74431;BME280;62863;52.062;23.764;2023-10-08T02:55:44;1018.2;;;10.7;58.2
74431;BME280;62863;52.062;23.764;2023-10-08T03:01:10;1018.2;;;10.7;58
74431;BME280;62863;52.062;23.764;2023-10-08T03:05:45;1018.2;;;10.7;57.9
74431;BME280;62863;52.062;23.764;2023-10-08T03:10:32;1018.3;;;10.7;57.9
74431;BME280;62863;52.062;23.764;2023-10-08T03:15:40;1018.5;;;10.7;58.2
74431;BME280;62863;52.062;23.764;2023-10-08T03:20:58;1018.5;;;10.6;58.3
74431;BME280;62863;52.062;23.764;2023-10-08T03:26:10;1018.5;;;10.6;58.1
74431;BME280;62863;52.062;23.764;2023-10-08T03:30:32;1018.5;;;10.6;57.6
74431;BME280;62863;52.062;23.764;2023-10-08T03:35:48;1018.5;;;10.6;56.9
74431;BME280;62863;52.062;23.764;2023-10-08T03:40:47;1018.5;;;10.6;56.4
74431;BME280;62863;52.062;23.764;2023-10-08T03:45:32;1018.6;;;10.6;56.3
74431;BME280;62863;52.062;23.764;2023-10-08T03:51:11;1018.6;;;10.6;56.4
74431;BME280;62863;52.062;23.764;2023-10-08T03:55:32;1018.5;;;10.6;55.8
74431;BME280;62863;52.062;23.764;2023-10-08T04:00:32;1018.6;;;10.5;55.8
74431;BME280;62863;52.062;23.764;2023-10-08T04:05:42;1018.7;;;10.5;56.2
74431;BME280;62863;52.062;23.764;2023-10-08T04:10:56;1018.7;;;10.5;56.8
74431;BME280;62863;52.062;23.764;2023-10-08T04:16:12;1018.8;;;10.5;57.5
74431;BME280;62863;52.062;23.764;2023-10-08T04:20:32;1018.8;;;10.5;57.8
74431;BME280;62863;52.062;23.764;2023-10-08T04:25:46;1018.9;;;10.5;58.3
74431;BME280;62863;52.062;23.764;2023-10-08T04:30:33;1018.9;;;10.4;59.2
74431;BME280;62863;52.062;23.764;2023-10-08T04:35:52;1019;;;10.2;59.7
74431;BME280;62863;52.062;23.764;2023-10-08T04:41:10;1019.2;;;10;60.2
74431;BME280;62863;52.062;23.764;2023-10-08T04:45:33;1019.2;;;9.8;61.2
74431;BME280;62863;52.062;23.764;2023-10-08T04:50:38;1019.2;;;9.6;61.4
74431;BME280;62863;52.062;23.764;2023-10-08T04:55:50;1019.3;;;9.5;61.3
74431;BME280;62863;52.062;23.764;2023-10-08T05:00:59;1019.4;;;9.5;61.6
74431;BME280;62863;52.062;23.764;2023-10-08T05:06:10;1019.4;;;9.4;61.9
74431;BME280;62863;52.062;23.764;2023-10-08T05:10:48;1019.5;;;9.5;62
74431;BME280;62863;52.062;23.764;2023-10-08T05:15:50;1019.5;;;9.7;61.8
74431;BME280;62863;52.062;23.764;2023-10-08T05:20:50;1019.5;;;9.8;61.6
74431;BME280;62863;52.062;23.764;2023-10-08T05:25:44;1019.6;;;9.9;61.7
74431;BME280;62863;52.062;23.764;2023-10-08T05:31:13;1019.7;;;9.9;61.6
74431;BME280;62863;52.062;23.764;2023-10-08T05:35:33;1019.9;;;10.4;60.3
74431;BME280;62863;52.062;23.764;2023-10-08T05:40:32;1019.8;;;13;55.1
74431;BME280;62863;52.062;23.764;2023-10-08T05:45:32;1019.8;;;16.9;48
74431;BME280;62863;52.062;23.764;2023-10-08T05:50:46;1019.7;;;20.3;41
74431;BME280;62863;52.062;23.764;2023-10-08T05:56:11;1019.6;;;23.3;35.7
74431;BME280;62863;52.062;23.764;2023-10-08T06:00:49;1019.7;;;25.1;32
74431;BME280;62863;52.062;23.764;2023-10-08T06:05:59;1019.7;;;26.1;29.5
74431;BME280;62863;52.062;23.764;2023-10-08T06:10:47;1019.8;;;27.3;27.4
74431;BME280;62863;52.062;23.764;2023-10-08T06:15:45;1019.8;;;28.4;25.8
74431;BME280;62863;52.062;23.764;2023-10-08T06:20:57;1019.9;;;29.2;25.3
74431;BME280;62863;52.062;23.764;2023-10-08T06:25:47;1019.9;;;29.4;24.8
74431;BME280;62863;52.062;23.764;2023-10-08T06:30:33;1019.9;;;30;24.1
74431;BME280;62863;52.062;23.764;2023-10-08T06:36:11;1019.9;;;29.8;23.8
74431;BME280;62863;52.062;23.764;2023-10-08T06:40:47;1019.9;;;30.4;23.5
74431;BME280;62863;52.062;23.764;2023-10-08T06:45:59;1020;;;30.8;21.5
74431;BME280;62863;52.062;23.764;2023-10-08T06:51:07;1020;;;30.9;20.5
74431;BME280;62863;52.062;23.764;2023-10-08T06:55:45;1020.2;;;30.9;19.9
74431;BME280;62863;52.062;23.764;2023-10-08T07:00:39;1020.2;;;31.5;19.5
74431;BME280;62863;52.062;23.764;2023-10-08T07:05:43;1020.3;;;30.5;19.7
74431;BME280;62863;52.062;23.764;2023-10-08T07:10:57;1020.4;;;29.3;20.3
74431;BME280;62863;52.062;23.764;2023-10-08T07:15:33;1020.5;;;29.2;20.9
74431;BME280;62863;52.062;23.764;2023-10-08T07:20:51;1020.6;;;28.6;21
74431;BME280;62863;52.062;23.764;2023-10-08T07:26:09;1020.6;;;28.3;21.3
74431;BME280;62863;52.062;23.764;2023-10-08T07:31:12;1020.7;;;27.7;21.3
74431;BME280;62863;52.062;23.764;2023-10-08T07:36:01;1020.9;;;25.6;22.3
74431;BME280;62863;52.062;23.764;2023-10-08T07:40:59;1020.9;;;25.1;22.3
74431;BME280;62863;52.062;23.764;2023-10-08T07:45:57;1020.9;;;25.1;22.5
74431;BME280;62863;52.062;23.764;2023-10-08T07:50:59;1021;;;24.7;22.9
74431;BME280;62863;52.062;23.764;2023-10-08T07:55:45;1021.1;;;24.3;22.8
74431;BME280;62863;52.062;23.764;2023-10-08T08:01:02;1021.3;;;22.7;24.3
74431;BME280;62863;52.062;23.764;2023-10-08T08:05:39;1021.3;;;22.9;24.1
74431;BME280;62863;52.062;23.764;2023-10-08T08:10:33;1021.4;;;21.6;25.9
74431;BME280;62863;52.062;23.764;2023-10-08T08:16:11;1021.5;;;21.4;25.5
74431;BME280;62863;52.062;23.764;2023-10-08T08:20:51;1021.6;;;20.4;26.6
74431;BME280;62863;52.062;23.764;2023-10-08T08:26:13;1021.7;;;18.3;28.5
74431;BME280;62863;52.062;23.764;2023-10-08T08:31:09;1021.7;;;18.1;28.7
74431;BME280;62863;52.062;23.764;2023-10-08T08:35:57;1021.7;;;18.3;28.7
74431;BME280;62863;52.062;23.764;2023-10-08T08:41:02;1021.7;;;19;28.2
74431;BME280;62863;52.062;23.764;2023-10-08T08:45:37;1021.7;;;18.7;28.5
74431;BME280;62863;52.062;23.764;2023-10-08T08:50:47;1021.8;;;17.7;29.5
74431;BME280;62863;52.062;23.764;2023-10-08T08:55:51;1021.9;;;17.1;30.9
74431;BME280;62863;52.062;23.764;2023-10-08T09:00:39;1021.9;;;16.7;30.7
74431;BME280;62863;52.062;23.764;2023-10-08T09:06:11;1021.9;;;16.3;31.8
74431;BME280;62863;52.062;23.764;2023-10-08T09:11:05;1022;;;16.2;31.3
74431;BME280;62863;52.062;23.764;2023-10-08T09:16:13;1022;;;16;31.6
74431;BME280;62863;52.062;23.764;2023-10-08T09:21:14;1022.1;;;15.8;31.8
74431;BME280;62863;52.062;23.764;2023-10-08T09:25:35;1022;;;16.1;31.4
74431;BME280;62863;52.062;23.764;2023-10-08T09:30:57;1022.1;;;16.3;30.6
74431;BME280;62863;52.062;23.764;2023-10-08T09:35:33;1022.1;;;16.2;31
74431;BME280;62863;52.062;23.764;2023-10-08T09:40:59;1022.1;;;16.3;30.8
74431;BME280;62863;52.062;23.764;2023-10-08T09:45:40;1022.2;;;16.1;31.1
74431;BME280;62863;52.062;23.764;2023-10-08T09:50:36;1022.1;;;15.6;31.2
74431;BME280;62863;52.062;23.764;2023-10-08T09:56:12;1022.2;;;15.6;31.9
74431;BME280;62863;52.062;23.764;2023-10-08T10:00:51;1022.1;;;15.7;31.4
74431;BME280;62863;52.062;23.764;2023-10-08T10:06:13;1022.2;;;15.8;31.5
74431;BME280;62863;52.062;23.764;2023-10-08T10:11:13;1022.2;;;15.9;31.5
74431;BME280;62863;52.062;23.764;2023-10-08T10:15:59;1022.2;;;15.7;31.1
74431;BME280;62863;52.062;23.764;2023-10-08T10:20:57;1022.2;;;15.4;31.5
74431;BME280;62863;52.062;23.764;2023-10-08T10:25:45;1022.3;;;14.8;31.4
74431;BME280;62863;52.062;23.764;2023-10-08T10:30:53;1022.3;;;14.3;31.9
74431;BME280;62863;52.062;23.764;2023-10-08T10:35:49;1022.3;;;14.6;32
74431;BME280;62863;52.062;23.764;2023-10-08T10:40:47;1022.2;;;15.2;32.2
74431;BME280;62863;52.062;23.764;2023-10-08T10:46:03;1022.2;;;15.6;31.2
74431;BME280;62863;52.062;23.764;2023-10-08T10:50:45;1022.2;;;16;30.5
74431;BME280;62863;52.062;23.764;2023-10-08T10:56:13;1022.2;;;16.4;30.5
74431;BME280;62863;52.062;23.764;2023-10-08T11:01:05;1022.3;;;16.8;30
74431;BME280;62863;52.062;23.764;2023-10-08T11:05:57;1022.2;;;17;29.8
74431;BME280;62863;52.062;23.764;2023-10-08T11:11:13;1022.3;;;17;29.4
74431;BME280;62863;52.062;23.764;2023-10-08T11:15:39;1022.2;;;16.7;29.3
74431;BME280;62863;52.062;23.764;2023-10-08T11:21:11;1022.3;;;16.3;29
74431;BME280;62863;52.062;23.764;2023-10-08T11:25:33;1022.2;;;16.1;29.1
74431;BME280;62863;52.062;23.764;2023-10-08T11:30:33;1022.2;;;15.8;29.9
74431;BME280;62863;52.062;23.764;2023-10-08T11:36:03;1022.2;;;15.4;30.5
74431;BME280;62863;52.062;23.764;2023-10-08T11:40:49;1022.2;;;15.5;30.1
74431;BME280;62863;52.062;23.764;2023-10-08T11:45:59;1022.1;;;16;30
74431;BME280;62863;52.062;23.764;2023-10-08T11:51:05;1022.1;;;16.4;29.8
74431;BME280;62863;52.062;23.764;2023-10-08T11:56:11;1022.1;;;16.3;29.6
74431;BME280;62863;52.062;23.764;2023-10-08T12:01:01;1022.1;;;16.2;29.7
74431;BME280;62863;52.062;23.764;2023-10-08T12:05:39;1022.1;;;15.9;29.4
74431;BME280;62863;52.062;23.764;2023-10-08T12:10:39;1022.1;;;15.7;29.9
74431;BME280;62863;52.062;23.764;2023-10-08T12:15:51;1022.1;;;16;29.8
74431;BME280;62863;52.062;23.764;2023-10-08T12:20:39;1022;;;16.4;29.3
74431;BME280;62863;52.062;23.764;2023-10-08T12:26:03;1022;;;16.7;29.2
74431;BME280;62863;52.062;23.764;2023-10-08T12:30:39;1022;;;16.9;28.6
74431;BME280;62863;52.062;23.764;2023-10-08T12:36:11;1022.1;;;16.4;28.7
74431;BME280;62863;52.062;23.764;2023-10-08T12:41:05;1022.2;;;15.7;29.1
74431;BME280;62863;52.062;23.764;2023-10-08T12:46:13;1022.2;;;15.4;29.9
74431;BME280;62863;52.062;23.764;2023-10-08T12:51:11;1022.2;;;15.5;30.2
74431;BME280;62863;52.062;23.764;2023-10-08T12:55:33;1022.2;;;15;30.1
74431;BME280;62863;52.062;23.764;2023-10-08T13:00:45;1022.4;;;14;31.1
74431;BME280;62863;52.062;23.764;2023-10-08T13:05:45;1022.4;;;13.7;31.7
74431;BME280;62863;52.062;23.764;2023-10-08T13:10:45;1022.4;;;13.6;32.1
74431;BME280;62863;52.062;23.764;2023-10-08T13:16:05;1022.4;;;13.8;32
74431;BME280;62863;52.062;23.764;2023-10-08T13:20:33;1022.5;;;14;32.3
74431;BME280;62863;52.062;23.764;2023-10-08T13:26:11;1022.4;;;14.1;32.3
74431;BME280;62863;52.062;23.764;2023-10-08T13:30:57;1022.5;;;13.9;32.7
74431;BME280;62863;52.062;23.764;2023-10-08T13:36:11;1022.5;;;14.1;32.5
74431;BME280;62863;52.062;23.764;2023-10-08T13:41:11;1022.5;;;14.4;31.8
74431;BME280;62863;52.062;23.764;2023-10-08T13:45:37;1022.5;;;13.9;32.1
74431;BME280;62863;52.062;23.764;2023-10-08T13:50:33;1022.6;;;13.2;32.9
74431;BME280;62863;52.062;23.764;2023-10-08T13:55:33;1022.8;;;13;33.8
74431;BME280;62863;52.062;23.764;2023-10-08T14:00:33;1022.8;;;13.3;34
74431;BME280;62863;52.062;23.764;2023-10-08T14:06:05;1022.7;;;13.4;33.9
74431;BME280;62863;52.062;23.764;2023-10-08T14:10:51;1022.8;;;13.2;33.8
74431;BME280;62863;52.062;23.764;2023-10-08T14:16:13;1022.9;;;13.2;33.6
74431;BME280;62863;52.062;23.764;2023-10-08T14:21:03;1023;;;13.3;33.6
74431;BME280;62863;52.062;23.764;2023-10-08T14:26:13;1023;;;13.2;33.5
74431;BME280;62863;52.062;23.764;2023-10-08T14:31:11;1023.1;;;13;33.9
74431;BME280;62863;52.062;23.764;2023-10-08T14:35:33;1023.2;;;12.8;34.3
74431;BME280;62863;52.062;23.764;2023-10-08T14:40:39;1023.3;;;12.8;34
74431;BME280;62863;52.062;23.764;2023-10-08T14:45:39;1023.4;;;12.7;33.5
74431;BME280;62863;52.062;23.764;2023-10-08T14:50:39;1023.4;;;12.5;33.2
74431;BME280;62863;52.062;23.764;2023-10-08T14:55:53;1023.4;;;12.3;33.5
74431;BME280;62863;52.062;23.764;2023-10-08T15:00:41;1023.6;;;12;33.6
74431;BME280;62863;52.062;23.764;2023-10-08T15:05:41;1023.6;;;11.9;33.5
74431;BME280;62863;52.062;23.764;2023-10-08T15:11:03;1023.6;;;11.7;34.2
74431;BME280;62863;52.062;23.764;2023-10-08T15:15:59;1023.8;;;11.5;34
74431;BME280;62863;52.062;23.764;2023-10-08T15:21:05;1023.8;;;11.4;33.9
74431;BME280;62863;52.062;23.764;2023-10-08T15:25:47;1023.9;;;11.4;34.1
74431;BME280;62863;52.062;23.764;2023-10-08T15:30:45;1024.1;;;11.2;34.2
74431;BME280;62863;52.062;23.764;2023-10-08T15:35:33;1024.2;;;11.1;35
74431;BME280;62863;52.062;23.764;2023-10-08T15:40:45;1024.3;;;10.9;35.6
74431;BME280;62863;52.062;23.764;2023-10-08T15:46:13;1024.3;;;10.8;35.9
74431;BME280;62863;52.062;23.764;2023-10-08T15:50:51;1024.4;;;10.8;36
74431;BME280;62863;52.062;23.764;2023-10-08T15:55:59;1024.6;;;10.6;36.4
74431;BME280;62863;52.062;23.764;2023-10-08T16:01:03;1024.7;;;10.6;36.4
74431;BME280;62863;52.062;23.764;2023-10-08T16:05:59;1024.8;;;10.5;37.2
74431;BME280;62863;52.062;23.764;2023-10-08T16:11:13;1024.9;;;10.3;37.6
74431;BME280;62863;52.062;23.764;2023-10-08T16:15:59;1025;;;10.2;38.2
74431;BME280;62863;52.062;23.764;2023-10-08T16:20:53;1025.1;;;10.2;38.4
74431;BME280;62863;52.062;23.764;2023-10-08T16:25:49;1025.2;;;10.1;38.8
74431;BME280;62863;52.062;23.764;2023-10-08T16:30:51;1025.3;;;10;38.8
74431;BME280;62863;52.062;23.764;2023-10-08T16:36:13;1025.4;;;10.1;39
74431;BME280;62863;52.062;23.764;2023-10-08T16:40:57;1025.5;;;10.1;38.7
74431;BME280;62863;52.062;23.764;2023-10-08T16:45:49;1025.6;;;10.1;39.1
74431;BME280;62863;52.062;23.764;2023-10-08T16:51:03;1025.6;;;10.1;39.3
74431;BME280;62863;52.062;23.764;2023-10-08T16:55:59;1025.8;;;10;39.3
74431;BME280;62863;52.062;23.764;2023-10-08T17:01:13;1025.9;;;9.9;40
74431;BME280;62863;52.062;23.764;2023-10-08T17:05:53;1026;;;9.8;40.3
74431;BME280;62863;52.062;23.764;2023-10-08T17:10:45;1026.1;;;9.7;40.3
74431;BME280;62863;52.062;23.764;2023-10-08T17:15:39;1026.2;;;9.6;40.3
74431;BME280;62863;52.062;23.764;2023-10-08T17:20:51;1026.2;;;9.5;40.3
74431;BME280;62863;52.062;23.764;2023-10-08T17:26:13;1026.4;;;9.4;40.8
74431;BME280;62863;52.062;23.764;2023-10-08T17:30:45;1026.4;;;9.3;41.2
74431;BME280;62863;52.062;23.764;2023-10-08T17:35:43;1026.5;;;9.2;41.8
74431;BME280;62863;52.062;23.764;2023-10-08T17:41:05;1026.5;;;9.1;42
74431;BME280;62863;52.062;23.764;2023-10-08T17:45:59;1026.7;;;9;42.8
74431;BME280;62863;52.062;23.764;2023-10-08T17:51:11;1026.8;;;9;43.2
74431;BME280;62863;52.062;23.764;2023-10-08T17:56:09;1026.8;;;8.9;43.5
74431;BME280;62863;52.062;23.764;2023-10-08T18:00:39;1026.8;;;8.8;44
74431;BME280;62863;52.062;23.764;2023-10-08T18:05:39;1026.9;;;8.8;44.2
74431;BME280;62863;52.062;23.764;2023-10-08T18:10:47;1027;;;8.7;44.4
74431;BME280;62863;52.062;23.764;2023-10-08T18:16:13;1027;;;8.6;44.6
74431;BME280;62863;52.062;23.764;2023-10-08T18:20:59;1027;;;8.5;45.3
74431;BME280;62863;52.062;23.764;2023-10-08T18:25:51;1027.1;;;8.5;45.6
74431;BME280;62863;52.062;23.764;2023-10-08T18:30:35;1027.1;;;8.4;45.7
74431;BME280;62863;52.062;23.764;2023-10-08T18:36:03;1027.2;;;8.3;46.2
74431;BME280;62863;52.062;23.764;2023-10-08T18:41:13;1027.2;;;8.3;46.5
74431;BME280;62863;52.062;23.764;2023-10-08T18:45:47;1027.3;;;8.2;46.7
74431;BME280;62863;52.062;23.764;2023-10-08T18:50:39;1027.4;;;8.1;47.4
74431;BME280;62863;52.062;23.764;2023-10-08T18:55:51;1027.5;;;8.1;47.7
74431;BME280;62863;52.062;23.764;2023-10-08T19:00:52;1027.6;;;8;48
74431;BME280;62863;52.062;23.764;2023-10-08T19:06:13;1027.6;;;8;48
74431;BME280;62863;52.062;23.764;2023-10-08T19:10:51;1027.7;;;7.9;48.5
74431;BME280;62863;52.062;23.764;2023-10-08T19:15:49;1027.7;;;7.9;49.1
74431;BME280;62863;52.062;23.764;2023-10-08T19:21:03;1027.7;;;7.9;49.2
74431;BME280;62863;52.062;23.764;2023-10-08T19:25:58;1027.8;;;7.8;49.1
74431;BME280;62863;52.062;23.764;2023-10-08T19:31:11;1027.8;;;7.7;49.4
74431;BME280;62863;52.062;23.764;2023-10-08T19:35:35;1027.9;;;7.7;49.8
74431;BME280;62863;52.062;23.764;2023-10-08T19:40:53;1028;;;7.7;50.3
74431;BME280;62863;52.062;23.764;2023-10-08T19:45:33;1028;;;7.7;50.4
74431;BME280;62863;52.062;23.764;2023-10-08T19:50:59;1028;;;7.8;49.8
74431;BME280;62863;52.062;23.764;2023-10-08T19:56:13;1028.1;;;7.9;49.5
74431;BME280;62863;52.062;23.764;2023-10-08T20:01:05;1028.1;;;8;49.5
74431;BME280;62863;52.062;23.764;2023-10-08T20:05:51;1028.2;;;7.9;49.7
74431;BME280;62863;52.062;23.764;2023-10-08T20:11:05;1028.2;;;7.8;49.4
74431;BME280;62863;52.062;23.764;2023-10-08T20:15:59;1028.3;;;7.7;50
74431;BME280;62863;52.062;23.764;2023-10-08T20:20:59;1028.3;;;7.7;50.2
74431;BME280;62863;52.062;23.764;2023-10-08T20:25:39;1028.4;;;7.6;50.2
74431;BME280;62863;52.062;23.764;2023-10-08T20:30:33;1028.4;;;7.7;50.4
74431;BME280;62863;52.062;23.764;2023-10-08T20:35:33;1028.5;;;7.7;50.3
74431;BME280;62863;52.062;23.764;2023-10-08T20:40:51;1028.5;;;7.7;51
74431;BME280;62863;52.062;23.764;2023-10-08T20:46:07;1028.5;;;7.6;51.5
74431;BME280;62863;52.062;23.764;2023-10-08T20:51:03;1028.5;;;7.4;51.8
74431;BME280;62863;52.062;23.764;2023-10-08T20:55:49;1028.5;;;7.3;52.1
74431;BME280;62863;52.062;23.764;2023-10-08T21:01:05;1028.6;;;7.3;52.5
74431;BME280;62863;52.062;23.764;2023-10-08T21:05:59;1028.7;;;7.2;52.7
74431;BME280;62863;52.062;23.764;2023-10-08T21:11:13;1028.7;;;7.2;53.2
74431;BME280;62863;52.062;23.764;2023-10-08T21:15:39;1028.7;;;7.1;53.5
74431;BME280;62863;52.062;23.764;2023-10-08T21:20:33;1028.8;;;7.1;53.3
74431;BME280;62863;52.062;23.764;2023-10-08T21:25:39;1028.8;;;7.1;53.5
74431;BME280;62863;52.062;23.764;2023-10-08T21:30:45;1028.8;;;7.1;53.5
74431;BME280;62863;52.062;23.764;2023-10-08T21:36:13;1028.9;;;6.9;55.2
74431;BME280;62863;52.062;23.764;2023-10-08T21:40:41;1028.9;;;6.9;55.6
74431;BME280;62863;52.062;23.764;2023-10-08T21:45:51;1029;;;6.8;55.4
74431;BME280;62863;52.062;23.764;2023-10-08T21:50:53;1029;;;6.8;55.7
74431;BME280;62863;52.062;23.764;2023-10-08T21:56:04;1029;;;6.8;55.7
74431;BME280;62863;52.062;23.764;2023-10-08T22:01:13;1029;;;6.8;55.9
74431;BME280;62863;52.062;23.764;2023-10-08T22:05:51;1029.1;;;6.7;56
74431;BME280;62863;52.062;23.764;2023-10-08T22:10:45;1029.2;;;6.7;56.3
74431;BME280;62863;52.062;23.764;2023-10-08T22:15:53;1029.2;;;6.6;55.8
74431;BME280;62863;52.062;23.764;2023-10-08T22:20:51;1029.3;;;6.5;57
74431;BME280;62863;52.062;23.764;2023-10-08T22:26:13;1029.3;;;6.5;57.6
74431;BME280;62863;52.062;23.764;2023-10-08T22:31:06;1029.3;;;6.4;57.8
74431;BME280;62863;52.062;23.764;2023-10-08T22:35:33;1029.3;;;6.4;57.7
74431;BME280;62863;52.062;23.764;2023-10-08T22:41:05;1029.4;;;6.5;57.5
74431;BME280;62863;52.062;23.764;2023-10-08T22:45:59;1029.4;;;6.4;57.6
74431;BME280;62863;52.062;23.764;2023-10-08T22:51:13;1029.5;;;6.4;57.8
74431;BME280;62863;52.062;23.764;2023-10-08T22:55:35;1029.5;;;6.3;58.2
74431;BME280;62863;52.062;23.764;2023-10-08T23:00:33;1029.6;;;6.3;58.4
74431;BME280;62863;52.062;23.764;2023-10-08T23:05:45;1029.6;;;6.2;58.7
74431;BME280;62863;52.062;23.764;2023-10-08T23:10:51;1029.6;;;6.2;58.8
74431;BME280;62863;52.062;23.764;2023-10-08T23:16:13;1029.6;;;6.2;59.2
74431;BME280;62863;52.062;23.764;2023-10-08T23:20:33;1029.7;;;6.2;59.3
74431;BME280;62863;52.062;23.764;2023-10-08T23:25:47;1029.7;;;6.1;59.6
74431;BME280;62863;52.062;23.764;2023-10-08T23:30:51;1029.7;;;6.1;59.8
74431;BME280;62863;52.062;23.764;2023-10-08T23:36:00;1029.7;;;6.1;60
74431;BME280;62863;52.062;23.764;2023-10-08T23:41:11;1029.8;;;6;60.1
74431;BME280;62863;52.062;23.764;2023-10-08T23:45:37;1029.7;;;6;60.5
74431;BME280;62863;52.062;23.764;2023-10-08T23:50:37;1029.8;;;5.9;60.6
74431;BME280;62863;52.062;23.764;2023-10-08T23:55:37;1029.8;;;5.9;61.2
